createdAt,value
2023-04-09T00:01:18.101Z,12.00
2023-04-09T00:03:44.649Z,11.95
2023-04-09T00:06:11.612Z,13.15
2023-04-09T00:08:38.006Z,12.68
2023-04-09T00:11:04.798Z,12.82
2023-04-09T00:13:39.201Z,11.88
2023-04-09T00:16:07.454Z,11.80
2023-04-09T00:18:33.998Z,12.55
2023-04-09T00:21:00.556Z,11.27
2023-04-09T00:23:26.997Z,12.40
2023-04-09T00:25:53.455Z,12.27
2023-04-09T00:28:20.061Z,13.85
2023-04-09T00:30:46.522Z,12.00
2023-04-09T00:33:12.984Z,12.73
2023-04-09T00:35:39.414Z,11.90
2023-04-09T00:38:05.857Z,14.05
2023-04-09T00:40:32.564Z,12.13
2023-04-09T00:42:58.994Z,12.38
2023-04-09T00:45:25.475Z,13.63
2023-04-09T00:47:52.233Z,12.27
2023-04-09T00:50:19.663Z,13.30
2023-04-09T00:52:46.078Z,13.05
2023-04-09T00:55:13.457Z,12.20
2023-04-09T00:57:39.872Z,13.68
2023-04-09T01:00:07.789Z,12.80
2023-04-09T01:02:34.693Z,13.88
2023-04-09T01:05:01.500Z,13.50
2023-04-09T01:07:54.244Z,12.52
2023-04-09T01:10:42.412Z,12.60
2023-04-09T01:13:12.535Z,12.27
2023-04-09T01:15:52.158Z,14.65
2023-04-09T01:18:29.468Z,13.75
2023-04-09T01:21:05.374Z,13.43
2023-04-09T01:24:05.651Z,13.88
2023-04-09T01:26:55.495Z,14.90
2023-04-09T01:29:23.932Z,14.38
2023-04-09T01:31:51.099Z,13.13
2023-04-09T01:34:19.379Z,13.35
2023-04-09T01:36:53.154Z,14.80
2023-04-09T01:39:19.975Z,14.90
2023-04-09T01:41:47.045Z,14.50
2023-04-09T01:44:14.616Z,15.77
2023-04-09T01:46:41.799Z,16.58
2023-04-09T01:49:10.884Z,14.93
2023-04-09T01:51:38.071Z,15.20
2023-04-09T01:54:05.063Z,15.93
2023-04-09T01:56:48.207Z,16.38
2023-04-09T01:59:14.958Z,16.13
2023-04-09T02:01:53.320Z,15.23
2023-04-09T02:04:40.399Z,15.75
2023-04-09T02:07:11.021Z,14.32
2023-04-09T02:09:40.569Z,15.98
2023-04-09T02:12:12.178Z,14.55
2023-04-09T02:14:40.124Z,14.85
2023-04-09T02:17:06.681Z,17.30
2023-04-09T02:19:47.713Z,16.65
2023-04-09T02:22:16.104Z,16.38
2023-04-09T02:24:42.687Z,16.73
2023-04-09T02:27:09.134Z,17.92
2023-04-09T02:29:35.635Z,15.95
2023-04-09T02:32:02.218Z,15.27
2023-04-09T02:34:28.680Z,16.80
2023-04-09T02:36:55.085Z,18.05
2023-04-09T02:39:21.513Z,17.05
2023-04-09T02:41:47.905Z,17.55
2023-04-09T02:44:14.374Z,17.02
2023-04-09T02:46:41.427Z,18.70
2023-04-09T02:49:08.138Z,15.82
2023-04-09T02:51:36.014Z,17.40
2023-04-09T02:54:03.546Z,16.92
2023-04-09T02:56:30.248Z,20.40
2023-04-09T02:58:56.656Z,19.05
2023-04-09T03:01:23.135Z,16.73
2023-04-09T03:03:49.899Z,17.35
2023-04-09T03:06:16.657Z,19.27
2023-04-09T03:08:43.080Z,20.75
2023-04-09T03:11:09.531Z,18.95
2023-04-09T03:13:35.974Z,18.92
2023-04-09T03:16:02.428Z,21.15
2023-04-09T03:18:28.839Z,20.00
2023-04-09T03:20:55.462Z,17.90
2023-04-09T03:23:21.886Z,22.55
2023-04-09T03:25:48.315Z,19.50
2023-04-09T03:28:14.828Z,19.50
2023-04-09T03:30:41.199Z,19.95
2023-04-09T03:33:07.693Z,20.40
2023-04-09T03:35:34.103Z,22.10
2023-04-09T03:38:00.515Z,19.80
2023-04-09T03:40:26.911Z,18.92
2023-04-09T03:42:53.292Z,20.80
2023-04-09T03:45:19.729Z,19.63
2023-04-09T03:47:46.173Z,20.40
2023-04-09T03:50:12.601Z,21.25
2023-04-09T03:52:38.994Z,19.60
2023-04-09T03:55:05.907Z,19.38
2023-04-09T03:57:32.434Z,19.02
2023-04-09T03:59:58.842Z,20.00
2023-04-09T04:02:27.080Z,19.42
2023-04-09T04:04:53.752Z,21.02
2023-04-09T04:07:20.152Z,19.02
2023-04-09T04:09:46.647Z,19.42
2023-04-09T04:12:13.071Z,21.23
2023-04-09T04:14:39.471Z,19.08
2023-04-09T04:17:05.982Z,19.05
2023-04-09T04:19:32.438Z,18.48
2023-04-09T04:21:58.878Z,19.52
2023-04-09T04:24:25.496Z,18.65
2023-04-09T04:26:51.896Z,18.63
2023-04-09T04:29:18.460Z,17.08
2023-04-09T04:31:44.937Z,19.20
2023-04-09T04:34:11.365Z,20.08
2023-04-09T04:36:37.911Z,18.55
2023-04-09T04:39:04.403Z,20.27
2023-04-09T04:41:30.903Z,20.55
2023-04-09T04:43:57.460Z,18.95
2023-04-09T04:46:23.868Z,19.08
2023-04-09T04:48:50.431Z,18.95
2023-04-09T04:51:17.102Z,19.23
2023-04-09T04:53:43.552Z,19.65
2023-04-09T04:56:16.043Z,19.65
2023-04-09T04:58:42.851Z,18.02
2023-04-09T05:01:09.292Z,18.30
2023-04-09T05:03:35.950Z,19.25
2023-04-09T05:06:02.932Z,18.67
2023-04-09T05:08:29.451Z,17.08
2023-04-09T05:10:56.300Z,20.02
2023-04-09T05:13:23.860Z,17.90
2023-04-09T05:15:50.803Z,18.40
2023-04-09T05:18:17.258Z,18.90
2023-04-09T05:20:43.702Z,20.08
2023-04-09T05:23:10.339Z,20.92
2023-04-09T05:25:36.797Z,19.63
2023-04-09T05:28:06.267Z,19.13
2023-04-09T05:30:32.725Z,18.60
2023-04-09T05:32:59.434Z,19.42
2023-04-09T05:35:25.880Z,18.48
2023-04-09T05:37:52.288Z,18.10
2023-04-09T05:40:18.746Z,19.92
2023-04-09T05:42:45.250Z,18.90
2023-04-09T05:45:11.700Z,19.15
2023-04-09T05:47:38.133Z,19.98
2023-04-09T05:50:05.656Z,18.75
2023-04-09T05:52:32.107Z,20.00
2023-04-09T05:54:58.668Z,19.58
2023-04-09T05:57:25.213Z,16.02
2023-04-09T05:59:51.612Z,18.98
2023-04-09T06:02:18.130Z,19.15
2023-04-09T06:04:44.615Z,18.55
2023-04-09T06:07:11.144Z,16.98
2023-04-09T06:09:38.188Z,17.35
2023-04-09T06:12:04.727Z,19.42
2023-04-09T06:14:33.073Z,18.23
2023-04-09T06:16:59.839Z,19.15
2023-04-09T06:19:26.315Z,16.73
2023-04-09T06:21:52.865Z,18.25
2023-04-09T06:24:19.453Z,16.90
2023-04-09T06:26:46.185Z,18.77
2023-04-09T06:29:12.668Z,20.00
2023-04-09T06:31:39.429Z,15.57
2023-04-09T06:34:05.989Z,15.40
2023-04-09T06:36:33.292Z,14.43
2023-04-09T06:38:59.710Z,17.58
2023-04-09T06:41:29.245Z,16.83
2023-04-09T06:43:55.663Z,15.20
2023-04-09T06:46:22.268Z,13.65
2023-04-09T06:48:48.812Z,14.43
2023-04-09T06:51:15.476Z,13.55
2023-04-09T06:53:42.463Z,15.18
2023-04-09T06:56:08.972Z,14.98
2023-04-09T06:58:35.499Z,13.77
2023-04-09T07:01:02.053Z,13.90
2023-04-09T07:03:29.538Z,14.63
2023-04-09T07:05:57.530Z,13.73
2023-04-09T07:08:24.017Z,15.00
2023-04-09T07:10:50.424Z,17.50
2023-04-09T07:13:17.314Z,19.08
2023-04-09T07:15:43.878Z,18.45
2023-04-09T07:18:10.642Z,18.88
2023-04-09T07:20:37.100Z,19.10
2023-04-09T07:23:03.545Z,19.33
2023-04-09T07:25:31.103Z,19.17
2023-04-09T07:27:57.534Z,20.60
2023-04-09T07:30:24.053Z,18.65
2023-04-09T07:32:50.956Z,16.48
2023-04-09T07:35:18.864Z,16.77
2023-04-09T07:37:45.397Z,16.77
2023-04-09T07:40:12.111Z,16.67
2023-04-09T07:42:39.396Z,16.73
2023-04-09T07:45:06.924Z,17.27
2023-04-09T07:47:33.494Z,15.80
2023-04-09T07:49:59.956Z,15.70
2023-04-09T07:52:26.348Z,15.77
2023-04-09T07:54:52.813Z,14.68
2023-04-09T07:57:19.270Z,14.43
2023-04-09T07:59:46.653Z,13.23
2023-04-09T08:02:15.376Z,12.98
2023-04-09T08:04:42.375Z,12.68
2023-04-09T08:07:09.192Z,11.93
2023-04-09T08:09:35.808Z,11.60
2023-04-09T08:12:02.326Z,11.63
2023-04-09T08:14:28.981Z,10.45
2023-04-09T08:16:55.570Z,12.82
2023-04-09T08:19:22.108Z,12.55
2023-04-09T08:21:49.522Z,11.43
2023-04-09T08:24:16.062Z,11.27
2023-04-09T08:26:42.932Z,10.52
2023-04-09T08:29:12.268Z,11.23
2023-04-09T08:31:39.244Z,11.35
2023-04-09T08:34:06.491Z,11.43
2023-04-09T08:36:34.604Z,11.80
2023-04-09T08:39:01.758Z,10.43
2023-04-09T08:41:29.401Z,11.18
2023-04-09T08:43:58.796Z,10.60
2023-04-09T08:46:29.005Z,11.20
2023-04-09T08:48:56.099Z,12.15
2023-04-09T08:51:24.214Z,10.23
2023-04-09T08:53:59.640Z,11.02
2023-04-09T08:56:27.785Z,11.95
2023-04-09T08:58:56.162Z,10.25
2023-04-09T09:01:28.103Z,11.35
2023-04-09T09:03:56.771Z,10.95
2023-04-09T09:06:27.014Z,9.68
2023-04-09T09:09:22.575Z,10.27
2023-04-09T09:11:52.311Z,11.80
2023-04-09T09:14:19.774Z,10.57
2023-04-09T09:16:55.416Z,11.18
2023-04-09T09:19:24.913Z,10.48
2023-04-09T09:21:58.410Z,10.82
2023-04-09T09:24:24.855Z,10.95
2023-04-09T09:26:54.436Z,9.98
2023-04-09T09:29:21.251Z,10.18
2023-04-09T09:31:49.634Z,11.48
2023-04-09T09:34:17.400Z,9.75
2023-04-09T09:36:44.654Z,11.02
2023-04-09T09:39:13.008Z,10.23
2023-04-09T09:41:41.146Z,11.13
2023-04-09T09:44:09.035Z,11.00
2023-04-09T09:46:42.667Z,10.57
2023-04-09T09:49:09.549Z,10.73
2023-04-09T09:51:37.612Z,10.70
2023-04-09T09:54:06.959Z,10.27
2023-04-09T09:56:39.307Z,10.00
2023-04-09T09:59:23.232Z,10.98
2023-04-09T10:02:04.322Z,9.75
2023-04-09T10:07:04.361Z,8.93
2023-04-09T10:09:31.307Z,9.20
2023-04-09T10:12:00.168Z,9.43
2023-04-09T10:14:28.855Z,9.60
2023-04-09T10:16:55.455Z,7.57
2023-04-09T10:19:22.288Z,9.35
2023-04-09T10:22:13.677Z,9.65
2023-04-09T10:27:16.450Z,7.57
2023-04-09T10:29:49.080Z,8.20
2023-04-09T10:32:26.414Z,8.55
2023-04-09T10:34:57.112Z,8.52
2023-04-09T10:37:25.601Z,8.38
2023-04-09T10:39:52.895Z,8.07
2023-04-09T10:42:32.609Z,7.88
2023-04-09T10:45:39.515Z,7.30
2023-04-09T10:48:06.089Z,8.00
2023-04-09T10:50:32.989Z,8.15
2023-04-09T10:53:02.586Z,6.50
2023-04-09T10:55:42.357Z,7.68
2023-04-09T10:58:12.737Z,6.97
2023-04-09T11:00:42.755Z,7.95
2023-04-09T11:03:09.404Z,7.60
2023-04-09T11:05:40.513Z,8.43
2023-04-09T11:08:09.665Z,8.27
2023-04-09T11:10:37.559Z,7.40
2023-04-09T11:13:04.752Z,7.13
2023-04-09T11:15:32.678Z,6.88
2023-04-09T11:17:59.223Z,8.40
2023-04-09T11:20:29.598Z,8.15
2023-04-09T11:22:56.399Z,6.95
2023-04-09T11:25:26.872Z,7.70
2023-04-09T11:27:54.440Z,7.28
2023-04-09T11:30:21.655Z,6.22
2023-04-09T11:32:49.700Z,6.88
2023-04-09T11:35:18.532Z,7.25
2023-04-09T11:37:50.243Z,7.13
2023-04-09T11:40:21.936Z,8.70
2023-04-09T11:42:51.134Z,7.70
2023-04-09T11:45:21.022Z,8.13
2023-04-09T11:47:49.036Z,8.02
2023-04-09T11:50:16.631Z,7.57
2023-04-09T11:52:45.136Z,7.30
2023-04-09T11:55:12.530Z,8.18
2023-04-09T11:57:48.486Z,7.10
2023-04-09T12:00:17.526Z,7.15
2023-04-09T12:02:49.758Z,6.50
2023-04-09T12:05:28.877Z,7.53
2023-04-09T12:08:01.307Z,7.18
2023-04-09T12:10:32.875Z,6.75
2023-04-09T12:13:07.602Z,7.28
2023-04-09T12:15:37.129Z,7.80
2023-04-09T12:18:04.545Z,6.93
2023-04-09T12:20:37.508Z,7.65
2023-04-09T12:23:06.211Z,7.93
2023-04-09T12:25:35.772Z,5.88
2023-04-09T12:28:03.912Z,6.80
2023-04-09T12:30:30.438Z,7.28
2023-04-09T12:32:57.307Z,6.20
2023-04-09T12:35:24.284Z,7.25
2023-04-09T12:37:51.807Z,6.28
2023-04-09T12:40:20.385Z,6.53
2023-04-09T12:42:47.534Z,7.95
2023-04-09T12:45:16.862Z,7.00
2023-04-09T12:47:44.390Z,7.28
2023-04-09T12:50:12.527Z,5.70
2023-04-09T12:52:39.921Z,5.72
2023-04-09T12:55:07.619Z,6.15
2023-04-09T12:57:34.418Z,6.75
2023-04-09T13:00:01.296Z,7.00
2023-04-09T13:02:28.127Z,6.45
2023-04-09T13:04:54.936Z,7.05
2023-04-09T13:07:22.946Z,6.85
2023-04-09T13:09:52.556Z,7.85
2023-04-09T13:12:21.690Z,7.22
2023-04-09T13:14:49.130Z,6.90
2023-04-09T13:17:19.053Z,7.05
2023-04-09T13:19:46.239Z,5.80
2023-04-09T13:22:13.151Z,6.05
2023-04-09T13:24:39.810Z,7.88
2023-04-09T13:27:09.605Z,6.25
2023-04-09T13:29:36.853Z,7.13
2023-04-09T13:32:07.102Z,6.97
2023-04-09T13:34:35.075Z,6.82
2023-04-09T13:37:04.399Z,6.93
2023-04-09T13:39:31.368Z,6.90
2023-04-09T13:41:57.923Z,7.03
2023-04-09T13:44:25.224Z,5.93
2023-04-09T13:46:51.707Z,6.68
2023-04-09T13:49:19.351Z,7.25
2023-04-09T13:51:46.150Z,6.22
2023-04-09T13:54:13.236Z,6.78
2023-04-09T13:56:39.775Z,5.97
2023-04-09T13:59:06.505Z,6.13
2023-04-09T14:01:33.682Z,6.30
2023-04-09T14:04:00.325Z,5.82
2023-04-09T14:06:27.154Z,6.25
2023-04-09T14:08:53.997Z,5.55
2023-04-09T14:11:20.858Z,5.82
2023-04-09T14:13:48.440Z,5.18
2023-04-09T14:16:15.081Z,6.05
2023-04-09T14:18:41.675Z,5.20
2023-04-09T14:21:10.248Z,5.57
2023-04-09T14:23:37.485Z,6.07
2023-04-09T14:26:05.554Z,6.40
2023-04-09T14:28:32.134Z,6.35
2023-04-09T14:30:59.527Z,5.30
2023-04-09T14:33:26.700Z,5.57
2023-04-09T14:35:53.322Z,6.07
2023-04-09T14:38:19.848Z,5.53
2023-04-09T14:40:46.381Z,6.32
2023-04-09T14:43:12.869Z,6.20
2023-04-09T14:45:39.416Z,5.50
2023-04-09T14:48:05.944Z,6.05
2023-04-09T14:50:33.875Z,6.00
2023-04-09T14:53:01.470Z,4.32
2023-04-09T14:55:28.300Z,6.00
2023-04-09T14:57:55.211Z,5.03
2023-04-09T15:00:21.906Z,5.55
2023-04-09T15:02:48.789Z,5.93
2023-04-09T15:05:16.049Z,7.05
2023-04-09T15:07:43.650Z,5.53
2023-04-09T15:10:10.832Z,5.25
2023-04-09T15:12:37.249Z,5.10
2023-04-09T15:15:08.519Z,5.20
2023-04-09T15:17:35.376Z,5.00
2023-04-09T15:20:02.024Z,5.30
2023-04-09T15:22:28.457Z,5.25
2023-04-09T15:24:54.896Z,5.03
2023-04-09T15:27:21.388Z,4.40
2023-04-09T15:29:47.782Z,5.10
2023-04-09T15:32:14.220Z,5.63
2023-04-09T15:34:40.857Z,6.07
2023-04-09T15:37:07.440Z,5.70
2023-04-09T15:39:35.008Z,4.88
2023-04-09T15:42:01.958Z,5.22
2023-04-09T15:44:28.918Z,4.85
2023-04-09T15:46:56.012Z,4.30
2023-04-09T15:49:23.185Z,6.43
2023-04-09T15:51:49.870Z,5.60
2023-04-09T15:54:16.500Z,4.47
2023-04-09T15:56:42.966Z,4.13
2023-04-09T15:59:09.793Z,4.57
2023-04-09T16:01:37.064Z,4.88
2023-04-09T16:04:04.973Z,6.10
2023-04-09T16:06:31.900Z,4.47
2023-04-09T16:08:58.517Z,5.68
2023-04-09T16:11:25.014Z,4.45
2023-04-09T16:13:52.366Z,4.15
2023-04-09T16:16:19.261Z,5.00
2023-04-09T16:18:45.962Z,4.25
2023-04-09T16:21:12.574Z,5.35
2023-04-09T16:23:39.741Z,4.75
2023-04-09T16:26:06.941Z,4.45
2023-04-09T16:28:33.772Z,4.45
2023-04-09T16:31:00.373Z,4.40
2023-04-09T16:33:27.059Z,3.85
2023-04-09T16:35:53.597Z,3.60
2023-04-09T16:38:20.147Z,4.43
2023-04-09T16:40:46.903Z,3.90
2023-04-09T16:43:13.478Z,4.65
2023-04-09T16:45:40.136Z,4.65
2023-04-09T16:48:11.901Z,4.20
2023-04-09T16:50:39.852Z,4.13
2023-04-09T16:53:06.564Z,3.80
2023-04-09T16:55:37.124Z,4.72
2023-04-09T16:58:03.576Z,4.15
2023-04-09T17:00:30.043Z,4.28
2023-04-09T17:02:57.582Z,3.88
2023-04-09T17:05:24.471Z,4.10
2023-04-09T17:07:52.334Z,4.65
2023-04-09T17:10:19.302Z,4.82
2023-04-09T17:12:45.876Z,4.18
2023-04-09T17:15:12.670Z,4.10
2023-04-09T17:17:39.159Z,4.75
2023-04-09T17:20:06.531Z,3.85
2023-04-09T17:22:34.974Z,5.13
2023-04-09T17:25:01.824Z,5.45
2023-04-09T17:27:28.266Z,3.33
2023-04-09T17:29:54.857Z,4.20
2023-04-09T17:32:21.289Z,4.32
2023-04-09T17:34:51.305Z,4.55
2023-04-09T17:37:18.571Z,4.20
2023-04-09T17:39:44.977Z,4.15
2023-04-09T17:42:14.557Z,4.90
2023-04-09T17:44:43.625Z,4.45
2023-04-09T17:47:11.545Z,5.43
2023-04-09T17:49:37.977Z,4.05
2023-04-09T17:52:04.373Z,4.32
2023-04-09T17:54:38.004Z,4.80
2023-04-09T17:57:07.139Z,4.25
2023-04-09T17:59:34.664Z,4.00
2023-04-09T18:02:01.291Z,4.82
2023-04-09T18:04:28.022Z,5.05
2023-04-09T18:06:56.003Z,4.65
2023-04-09T18:09:22.464Z,5.70
2023-04-09T18:11:49.155Z,4.30
2023-04-09T18:14:15.763Z,3.72
2023-04-09T18:16:42.222Z,3.63
2023-04-09T18:19:08.637Z,4.03
2023-04-09T18:21:38.142Z,4.20
2023-04-09T18:24:04.822Z,6.43
2023-04-09T18:26:33.319Z,4.75
2023-04-09T18:29:01.164Z,4.68
2023-04-09T18:31:28.182Z,5.30
2023-04-09T18:33:54.722Z,5.40
2023-04-09T18:36:21.361Z,4.32
2023-04-09T18:38:47.782Z,4.60
2023-04-09T18:41:22.355Z,4.50
2023-04-09T18:43:48.775Z,4.85
2023-04-09T18:46:15.314Z,4.95
2023-04-09T18:48:43.325Z,5.47
2023-04-09T18:51:10.570Z,5.72
2023-04-09T18:53:37.137Z,5.25
2023-04-09T18:56:03.834Z,5.00
2023-04-09T18:58:30.233Z,6.30
2023-04-09T19:00:56.856Z,4.93
2023-04-09T19:03:23.861Z,4.82
2023-04-09T19:05:51.641Z,5.22
2023-04-09T19:08:18.047Z,4.70
2023-04-09T19:10:47.340Z,6.28
2023-04-09T19:13:13.731Z,4.63
2023-04-09T19:15:40.130Z,5.57
2023-04-09T19:18:06.680Z,5.88
2023-04-09T19:20:33.187Z,7.43
2023-04-09T19:22:59.799Z,5.40
2023-04-09T19:25:26.273Z,5.20
2023-04-09T19:27:54.193Z,4.25
2023-04-09T19:30:21.179Z,4.07
2023-04-09T19:32:47.611Z,3.97
2023-04-09T19:35:14.077Z,3.35
2023-04-09T19:37:40.681Z,3.17
2023-04-09T19:40:07.874Z,2.30
2023-04-09T19:42:34.587Z,2.22
2023-04-09T19:45:01.065Z,2.13
2023-04-09T19:47:27.959Z,2.15
2023-04-09T19:49:54.679Z,2.97
2023-04-09T19:52:21.434Z,2.67
2023-04-09T19:54:48.018Z,2.67
2023-04-09T19:57:15.152Z,3.90
2023-04-09T19:59:41.590Z,4.32
2023-04-09T20:02:08.152Z,4.53
2023-04-09T20:04:34.661Z,3.08
2023-04-09T20:07:01.236Z,4.45
2023-04-09T20:09:29.024Z,4.38
2023-04-09T20:11:55.533Z,3.85
2023-04-09T20:14:22.004Z,4.75
2023-04-09T20:16:48.504Z,4.18
2023-04-09T20:19:15.015Z,5.07
2023-04-09T20:21:43.479Z,5.00
2023-04-09T20:24:10.226Z,4.45
2023-04-09T20:26:36.884Z,4.30
2023-04-09T20:29:03.394Z,3.92
2023-04-09T20:31:31.707Z,4.38
2023-04-09T20:33:58.242Z,4.65
2023-04-09T20:36:24.668Z,4.72
2023-04-09T20:38:51.241Z,5.22
2023-04-09T20:41:18.050Z,4.15
2023-04-09T20:43:44.480Z,4.82
2023-04-09T20:46:11.923Z,4.20
2023-04-09T20:48:38.462Z,5.35
2023-04-09T20:51:10.995Z,5.32
2023-04-09T20:53:38.427Z,5.32
2023-04-09T20:56:06.266Z,7.07
2023-04-09T20:58:33.614Z,4.53
2023-04-09T21:01:09.251Z,5.15
2023-04-09T21:03:40.130Z,4.63
2023-04-09T21:06:08.193Z,5.43
2023-04-09T21:08:34.947Z,5.78
2023-04-09T21:11:02.236Z,4.97
2023-04-09T21:13:53.230Z,5.60
2023-04-09T21:16:21.479Z,5.43
2023-04-09T21:18:49.390Z,5.50
2023-04-09T21:21:16.792Z,6.10
2023-04-09T21:23:43.628Z,6.60
2023-04-09T21:26:11.502Z,7.25
2023-04-09T21:28:39.275Z,6.18
2023-04-09T21:31:06.127Z,6.95
2023-04-09T21:33:32.965Z,6.43
2023-04-09T21:35:59.449Z,6.47
2023-04-09T21:38:26.208Z,6.60
2023-04-09T21:40:52.780Z,5.18
2023-04-09T21:43:19.495Z,6.07
2023-04-09T21:45:46.344Z,6.03
2023-04-09T21:48:13.727Z,5.50
2023-04-09T21:50:40.240Z,6.35
2023-04-09T21:53:07.051Z,5.63
2023-04-09T21:55:36.425Z,5.65
2023-04-09T21:58:03.807Z,5.40
2023-04-09T22:00:30.863Z,6.30
2023-04-09T22:03:01.981Z,5.72
2023-04-09T22:07:56.013Z,6.28
2023-04-09T22:10:22.658Z,7.13
2023-04-09T22:12:50.091Z,7.32
2023-04-09T22:15:16.987Z,7.10
2023-04-09T22:17:43.896Z,6.15
2023-04-09T22:20:10.646Z,6.15
2023-04-09T22:22:37.710Z,6.03
2023-04-09T22:25:06.790Z,5.90
2023-04-09T22:27:33.939Z,6.20
2023-04-09T22:30:00.366Z,6.72
2023-04-09T22:32:26.823Z,5.88
2023-04-09T22:34:53.525Z,6.38
2023-04-09T22:37:20.092Z,7.22
2023-04-09T22:39:46.502Z,6.47
2023-04-09T22:42:12.874Z,6.25
2023-04-09T22:44:39.575Z,7.22
2023-04-09T22:47:06.097Z,6.75
2023-04-09T22:49:32.501Z,6.65
2023-04-09T22:51:58.877Z,6.80
2023-04-09T22:54:25.396Z,5.65
2023-04-09T22:56:51.822Z,6.95
2023-04-09T22:59:19.962Z,6.63
2023-04-09T23:01:47.863Z,7.05
2023-04-09T23:04:15.055Z,6.03
2023-04-09T23:06:41.631Z,5.75
2023-04-09T23:09:08.050Z,6.38
2023-04-09T23:11:36.371Z,6.55
2023-04-09T23:14:02.837Z,6.05
2023-04-09T23:16:29.379Z,5.90
2023-04-09T23:18:55.931Z,5.82
2023-04-09T23:21:22.606Z,5.25
2023-04-09T23:23:49.012Z,5.43
2023-04-09T23:26:15.477Z,5.82
2023-04-09T23:28:41.857Z,6.78
2023-04-09T23:31:08.462Z,6.15
2023-04-09T23:33:34.947Z,6.65
2023-04-09T23:36:01.377Z,7.55
2023-04-09T23:38:28.157Z,6.00
2023-04-09T23:40:54.625Z,6.18
2023-04-09T23:43:20.998Z,6.28
2023-04-09T23:45:49.727Z,6.10
2023-04-09T23:48:16.600Z,6.47
2023-04-09T23:50:42.996Z,5.75
2023-04-09T23:53:09.418Z,5.72
2023-04-09T23:55:40.991Z,7.70
2023-04-09T23:58:08.340Z,6.20
